createdAt,value
2023-03-26T00:03:08.886Z,27.12
2023-03-26T00:07:08.821Z,27.15
2023-03-26T00:11:08.853Z,27.14
2023-03-26T00:15:08.963Z,27.23
2023-03-26T00:19:08.998Z,27.17
2023-03-26T00:23:08.989Z,27.21
2023-03-26T00:27:08.985Z,27.21
2023-03-26T00:31:09.035Z,27.17
2023-03-26T00:35:09.114Z,27.24
2023-03-26T00:39:09.264Z,27.22
2023-03-26T00:43:09.177Z,27.24
2023-03-26T00:47:09.202Z,27.22
2023-03-26T00:51:09.248Z,27.25
2023-03-26T00:55:09.218Z,27.23
2023-03-26T00:59:09.228Z,27.21
2023-03-26T01:03:09.290Z,27.22
2023-03-26T01:07:09.184Z,27.22
2023-03-26T01:11:09.173Z,27.25
2023-03-26T01:15:09.238Z,27.29
2023-03-26T01:19:09.268Z,27.32
2023-03-26T01:23:09.245Z,27.28
2023-03-26T01:27:09.228Z,27.33
2023-03-26T01:31:09.255Z,27.30
2023-03-26T01:35:09.273Z,27.27
2023-03-26T01:39:09.366Z,27.32
2023-03-26T01:43:09.430Z,27.31
2023-03-26T01:47:09.423Z,27.27
2023-03-26T01:51:09.493Z,27.33
2023-03-26T01:55:09.566Z,27.34
2023-03-26T01:59:09.550Z,27.36
2023-03-26T02:03:09.654Z,27.33
2023-03-26T02:07:09.533Z,27.36
2023-03-26T02:11:09.886Z,27.38
2023-03-26T02:15:09.547Z,27.37
2023-03-26T02:19:09.564Z,27.33
2023-03-26T02:23:09.562Z,27.38
2023-03-26T02:27:09.586Z,27.43
2023-03-26T02:31:09.680Z,27.38
2023-03-26T02:35:09.670Z,27.39
2023-03-26T16:55:22.878Z,27.78
2023-03-26T16:59:23.257Z,27.71
2023-03-26T17:03:23.350Z,27.70
2023-03-26T17:07:23.527Z,27.72
2023-03-26T17:11:23.441Z,27.76
2023-03-26T17:15:23.469Z,27.77
2023-03-26T22:47:24.613Z,28.01
